sensor_id;sensor_type;location;lat;lon;timestamp;pressure;altitude;pressure_sealevel;temperature;humidity
26859;BME280;14429;48.346;16.338;2023-03-01T00:00:45;100850.50;;;10.74;44.34
26859;BME280;14429;48.346;16.338;2023-03-01T00:03:11;100849.66;;;10.73;44.51
26859;BME280;14429;48.346;16.338;2023-03-01T00:05:36;100852.38;;;10.72;44.57
26859;BME280;14429;48.346;16.338;2023-03-01T00:08:02;100840.94;;;10.70;44.38
26859;BME280;14429;48.346;16.338;2023-03-01T00:10:28;100848.09;;;10.69;44.52
26859;BME280;14429;48.346;16.338;2023-03-01T00:12:54;100842.75;;;10.69;44.47
26859;BME280;14429;48.346;16.338;2023-03-01T00:15:19;100848.09;;;10.69;44.49
26859;BME280;14429;48.346;16.338;2023-03-01T00:17:45;100842.75;;;10.69;44.39
26859;BME280;14429;48.346;16.338;2023-03-01T00:20:11;100857.09;;;10.67;44.53
26859;BME280;14429;48.346;16.338;2023-03-01T00:22:36;100864.38;;;10.63;44.59
26859;BME280;14429;48.346;16.338;2023-03-01T00:25:02;100859.19;;;10.60;44.62
26859;BME280;14429;48.346;16.338;2023-03-01T00:27:29;100862.66;;;10.62;44.53
26859;BME280;14429;48.346;16.338;2023-03-01T00:29:55;100849.38;;;10.61;44.63
26859;BME280;14429;48.346;16.338;2023-03-01T00:32:20;100850.09;;;10.64;44.54
26859;BME280;14429;48.346;16.338;2023-03-01T00:34:45;100848.38;;;10.63;44.62
26859;BME280;14429;48.346;16.338;2023-03-01T00:37:11;100846.81;;;10.59;44.66
26859;BME280;14429;48.346;16.338;2023-03-01T00:39:36;100840.63;;;10.59;44.47
26859;BME280;14429;48.346;16.338;2023-03-01T00:42:02;100840.91;;;10.53;44.83
26859;BME280;14429;48.346;16.338;2023-03-01T00:44:29;100833.72;;;10.55;44.64
26859;BME280;14429;48.346;16.338;2023-03-01T00:46:54;100840.06;;;10.52;44.71
26859;BME280;14429;48.346;16.338;2023-03-01T00:49:19;100836.28;;;10.56;44.60
26859;BME280;14429;48.346;16.338;2023-03-01T00:51:45;100832.84;;;10.54;44.59
26859;BME280;14429;48.346;16.338;2023-03-01T00:54:10;100831.09;;;10.53;44.62
26859;BME280;14429;48.346;16.338;2023-03-01T00:56:36;100825.78;;;10.53;44.53
26859;BME280;14429;48.346;16.338;2023-03-01T00:59:01;100820.44;;;10.53;44.57
26859;BME280;14429;48.346;16.338;2023-03-01T01:01:29;100825.78;;;10.53;44.60
26859;BME280;14429;48.346;16.338;2023-03-01T01:03:57;100823.34;;;10.49;44.63
26859;BME280;14429;48.346;16.338;2023-03-01T01:06:24;100833.94;;;10.50;44.58
26859;BME280;14429;48.346;16.338;2023-03-01T01:08:50;100831.44;;;10.48;44.71
26859;BME280;14429;48.346;16.338;2023-03-01T01:11:17;100825.31;;;10.46;44.71
26859;BME280;14429;48.346;16.338;2023-03-01T01:13:44;100827.09;;;10.45;44.68
26859;BME280;14429;48.346;16.338;2023-03-01T01:16:09;100821.06;;;10.42;44.68
26859;BME280;14429;48.346;16.338;2023-03-01T01:18:36;100805.78;;;10.45;44.75
26859;BME280;14429;48.346;16.338;2023-03-01T01:21:06;100816.44;;;10.45;44.59
26859;BME280;14429;48.346;16.338;2023-03-01T01:23:32;100812.16;;;10.43;44.85
26859;BME280;14429;48.346;16.338;2023-03-01T01:26:03;100812.44;;;10.37;44.79
26859;BME280;14429;48.346;16.338;2023-03-01T01:28:29;100810.41;;;10.42;44.73
26859;BME280;14429;48.346;16.338;2023-03-01T01:30:54;100803.13;;;10.45;44.63
26859;BME280;14429;48.346;16.338;2023-03-01T01:33:19;100805.06;;;10.42;44.58
26859;BME280;14429;48.346;16.338;2023-03-01T01:35:46;100808.44;;;10.28;44.79
26859;BME280;14429;48.346;16.338;2023-03-01T01:38:12;100806.00;;;10.24;45.05
26859;BME280;14429;48.346;16.338;2023-03-01T01:40:43;100808.13;;;10.34;44.74
26859;BME280;14429;48.346;16.338;2023-03-01T01:43:18;100801.88;;;10.35;44.70
26859;BME280;14429;48.346;16.338;2023-03-01T01:45:45;100792.78;;;10.39;44.73
26859;BME280;14429;48.346;16.338;2023-03-01T01:48:12;100798.09;;;10.39;44.68
26859;BME280;14429;48.346;16.338;2023-03-01T01:50:40;100792.97;;;10.35;44.70
26859;BME280;14429;48.346;16.338;2023-03-01T01:53:10;100791.13;;;10.37;44.51
26859;BME280;14429;48.346;16.338;2023-03-01T01:55:40;100788.53;;;10.35;44.74
26859;BME280;14429;48.346;16.338;2023-03-01T01:58:09;100788.44;;;10.37;44.64
26859;BME280;14429;48.346;16.338;2023-03-01T02:00:37;100785.06;;;10.33;44.72
26859;BME280;14429;48.346;16.338;2023-03-01T02:03:04;100787.84;;;10.32;44.60
26859;BME280;14429;48.346;16.338;2023-03-01T02:05:37;100780.75;;;10.31;44.77
26859;BME280;14429;48.346;16.338;2023-03-01T02:08:03;100780.75;;;10.31;44.77
26859;BME280;14429;48.346;16.338;2023-03-01T02:10:32;100785.22;;;10.30;44.71
26859;BME280;14429;48.346;16.338;2023-03-01T02:12:58;100777.31;;;10.29;44.58
26859;BME280;14429;48.346;16.338;2023-03-01T02:15:25;100785.22;;;10.30;44.82
26859;BME280;14429;48.346;16.338;2023-03-01T02:17:50;100780.94;;;10.28;44.79
26859;BME280;14429;48.346;16.338;2023-03-01T02:20:23;100783.75;;;10.25;44.75
26859;BME280;14429;48.346;16.338;2023-03-01T02:22:51;100777.47;;;10.26;44.70
26859;BME280;14429;48.346;16.338;2023-03-01T02:25:36;100785.38;;;10.27;45.01
26859;BME280;14429;48.346;16.338;2023-03-01T02:28:08;100781.09;;;10.25;44.77
26859;BME280;14429;48.346;16.338;2023-03-01T02:30:37;100782.66;;;10.29;44.79
26859;BME280;14429;48.346;16.338;2023-03-01T02:33:04;100783.59;;;10.28;44.71
26859;BME280;14429;48.346;16.338;2023-03-01T02:35:34;100786.31;;;10.26;44.85
26859;BME280;14429;48.346;16.338;2023-03-01T02:38:01;100782.03;;;10.24;44.81
26859;BME280;14429;48.346;16.338;2023-03-01T02:40:28;100786.84;;;10.16;44.93
26859;BME280;14429;48.346;16.338;2023-03-01T02:42:57;100783.41;;;10.14;44.96
26859;BME280;14429;48.346;16.338;2023-03-01T02:45:23;100786.66;;;10.21;44.90
26859;BME280;14429;48.346;16.338;2023-03-01T02:47:50;100775.91;;;10.22;44.74
26859;BME280;14429;48.346;16.338;2023-03-01T02:50:32;100785.69;;;10.22;44.69
26859;BME280;14429;48.346;16.338;2023-03-01T02:53:08;100783.88;;;10.22;44.78
26859;BME280;14429;48.346;16.338;2023-03-01T02:55:36;100777.09;;;10.17;44.98
26859;BME280;14429;48.346;16.338;2023-03-01T02:58:02;100783.28;;;10.17;44.67
26859;BME280;14429;48.346;16.338;2023-03-01T03:00:30;100781.38;;;10.19;44.94
26859;BME280;14429;48.346;16.338;2023-03-01T03:03:00;100775.91;;;10.22;44.74
26859;BME280;14429;48.346;16.338;2023-03-01T03:05:28;100774.19;;;10.21;44.69
26859;BME280;14429;48.346;16.338;2023-03-01T03:07:53;100777.75;;;10.20;44.52
26859;BME280;14429;48.346;16.338;2023-03-01T03:10:21;100774.31;;;10.18;44.80
26859;BME280;14429;48.346;16.338;2023-03-01T03:12:49;100780.66;;;10.16;44.81
26859;BME280;14429;48.346;16.338;2023-03-01T03:15:15;100776.19;;;10.16;44.68
26859;BME280;14429;48.346;16.338;2023-03-01T03:17:41;100781.38;;;10.19;44.58
26859;BME280;14429;48.346;16.338;2023-03-01T03:20:11;100773.38;;;10.19;44.59
26859;BME280;14429;48.346;16.338;2023-03-01T03:22:37;100769.00;;;10.18;44.82
26859;BME280;14429;48.346;16.338;2023-03-01T03:25:03;100762.88;;;10.16;44.75
26859;BME280;14429;48.346;16.338;2023-03-01T03:27:29;100770.81;;;10.18;44.60
26859;BME280;14429;48.346;16.338;2023-03-01T03:29:54;100767.28;;;10.17;44.66
26859;BME280;14429;48.346;16.338;2023-03-01T03:32:20;100755.66;;;10.18;44.58
26859;BME280;14429;48.346;16.338;2023-03-01T03:34:45;100753.97;;;10.17;44.61
26859;BME280;14429;48.346;16.338;2023-03-01T03:37:12;100754.09;;;10.14;44.73
26859;BME280;14429;48.346;16.338;2023-03-01T03:39:37;100762.09;;;10.14;44.74
26859;BME280;14429;48.346;16.338;2023-03-01T03:42:03;100749.41;;;10.19;44.57
26859;BME280;14429;48.346;16.338;2023-03-01T03:44:28;100749.53;;;10.16;44.71
26859;BME280;14429;48.346;16.338;2023-03-01T03:46:54;100752.28;;;10.15;44.35
26859;BME280;14429;48.346;16.338;2023-03-01T03:49:19;100756.75;;;10.14;44.67
26859;BME280;14429;48.346;16.338;2023-03-01T03:51:45;100759.50;;;10.13;44.58
26859;BME280;14429;48.346;16.338;2023-03-01T03:54:12;100760.38;;;10.13;44.80
26859;BME280;14429;48.346;16.338;2023-03-01T03:56:37;100749.63;;;10.15;44.52
26859;BME280;14429;48.346;16.338;2023-03-01T03:59:03;100761.09;;;10.17;44.68
26859;BME280;14429;48.346;16.338;2023-03-01T04:01:28;100752.28;;;10.15;44.83
26859;BME280;14429;48.346;16.338;2023-03-01T04:03:54;100750.50;;;10.15;44.70
26859;BME280;14429;48.346;16.338;2023-03-01T04:06:19;100742.59;;;10.14;44.66
26859;BME280;14429;48.346;16.338;2023-03-01T04:08:44;100744.59;;;10.09;44.66
26859;BME280;14429;48.346;16.338;2023-03-01T04:11:12;100744.53;;;10.10;44.66
26859;BME280;14429;48.346;16.338;2023-03-01T04:13:37;100749.88;;;10.10;44.78
26859;BME280;14429;48.346;16.338;2023-03-01T04:16:03;100753.47;;;10.09;44.76
26859;BME280;14429;48.346;16.338;2023-03-01T04:18:29;100746.41;;;10.08;44.74
26859;BME280;14429;48.346;16.338;2023-03-01T04:20:54;100746.41;;;10.08;44.55
26859;BME280;14429;48.346;16.338;2023-03-01T04:23:20;100749.06;;;10.08;44.63
26859;BME280;14429;48.346;16.338;2023-03-01T04:25:47;100744.69;;;10.07;44.85
26859;BME280;14429;48.346;16.338;2023-03-01T04:28:15;100735.75;;;10.08;44.70
26859;BME280;14429;48.346;16.338;2023-03-01T04:30:40;100740.16;;;10.09;44.76
26859;BME280;14429;48.346;16.338;2023-03-01T04:33:07;100741.06;;;10.08;44.77
26859;BME280;14429;48.346;16.338;2023-03-01T04:35:34;100744.84;;;10.04;44.82
26859;BME280;14429;48.346;16.338;2023-03-01T04:38:00;100745.16;;;9.98;44.84
26859;BME280;14429;48.346;16.338;2023-03-01T04:40:25;100743.13;;;10.03;44.89
26859;BME280;14429;48.346;16.338;2023-03-01T04:42:51;100743.91;;;10.05;44.94
26859;BME280;14429;48.346;16.338;2023-03-01T04:45:18;100752.91;;;10.03;45.04
26859;BME280;14429;48.346;16.338;2023-03-01T04:47:45;100759.09;;;10.03;44.85
26859;BME280;14429;48.346;16.338;2023-03-01T04:50:13;100751.97;;;10.04;44.85
26859;BME280;14429;48.346;16.338;2023-03-01T04:52:38;100746.72;;;10.02;44.96
26859;BME280;14429;48.346;16.338;2023-03-01T04:55:05;100747.72;;;10.00;45.07
26859;BME280;14429;48.346;16.338;2023-03-01T04:57:31;100744.97;;;10.01;44.79
26859;BME280;14429;48.346;16.338;2023-03-01T04:59:56;100749.53;;;9.99;45.04
26859;BME280;14429;48.346;16.338;2023-03-01T05:02:23;100749.53;;;9.99;45.03
26859;BME280;14429;48.346;16.338;2023-03-01T05:04:48;100758.63;;;9.96;45.03
26859;BME280;14429;48.346;16.338;2023-03-01T05:07:14;100748.69;;;9.99;44.88
26859;BME280;14429;48.346;16.338;2023-03-01T05:09:39;100746.88;;;9.99;44.89
26859;BME280;14429;48.346;16.338;2023-03-01T05:12:05;100739.81;;;9.98;44.80
26859;BME280;14429;48.346;16.338;2023-03-01T05:14:30;100740.59;;;10.00;44.88
26859;BME280;14429;48.346;16.338;2023-03-01T05:16:57;100746.88;;;9.99;45.04
26859;BME280;14429;48.346;16.338;2023-03-01T05:19:23;100745.31;;;9.96;44.90
26859;BME280;14429;48.346;16.338;2023-03-01T05:21:49;100747.00;;;9.96;44.75
26859;BME280;14429;48.346;16.338;2023-03-01T05:24:14;100749.06;;;9.92;45.04
26859;BME280;14429;48.346;16.338;2023-03-01T05:26:40;100751.94;;;9.87;45.08
26859;BME280;14429;48.346;16.338;2023-03-01T05:29:05;100755.34;;;9.91;45.09
26859;BME280;14429;48.346;16.338;2023-03-01T05:31:30;100765.81;;;9.94;45.12
26859;BME280;14429;48.346;16.338;2023-03-01T05:33:56;100759.56;;;9.95;44.86
26859;BME280;14429;48.346;16.338;2023-03-01T05:36:23;100760.41;;;9.95;44.91
26859;BME280;14429;48.346;16.338;2023-03-01T05:38:48;100763.00;;;9.96;44.93
26859;BME280;14429;48.346;16.338;2023-03-01T05:41:14;100765.66;;;9.96;44.93
26859;BME280;14429;48.346;16.338;2023-03-01T05:43:40;100764.91;;;9.95;45.05
26859;BME280;14429;48.346;16.338;2023-03-01T05:46:06;100767.25;;;10.00;45.03
26859;BME280;14429;48.346;16.338;2023-03-01T05:48:32;100765.59;;;9.98;44.92
26859;BME280;14429;48.346;16.338;2023-03-01T05:50:59;100768.41;;;9.77;45.39
26859;BME280;14429;48.346;16.338;2023-03-01T05:53:26;100771.38;;;9.89;45.15
26859;BME280;14429;48.346;16.338;2023-03-01T05:55:51;100778.13;;;9.96;44.91
26859;BME280;14429;48.346;16.338;2023-03-01T05:58:19;100774.50;;;9.97;44.99
26859;BME280;14429;48.346;16.338;2023-03-01T06:00:46;100779.97;;;9.94;44.89
26859;BME280;14429;48.346;16.338;2023-03-01T06:03:14;100777.50;;;9.91;45.05
26859;BME280;14429;48.346;16.338;2023-03-01T06:05:40;100776.47;;;9.94;44.96
26859;BME280;14429;48.346;16.338;2023-03-01T06:08:05;100783.38;;;9.97;44.98
26859;BME280;14429;48.346;16.338;2023-03-01T06:10:32;100786.34;;;9.92;45.17
26859;BME280;14429;48.346;16.338;2023-03-01T06:12:58;100782.88;;;9.90;44.96
26859;BME280;14429;48.346;16.338;2023-03-01T06:15:24;100786.63;;;9.86;45.00
26859;BME280;14429;48.346;16.338;2023-03-01T06:17:50;100784.63;;;9.91;45.10
26859;BME280;14429;48.346;16.338;2023-03-01T06:20:21;100781.97;;;9.91;44.96
26859;BME280;14429;48.346;16.338;2023-03-01T06:22:47;100781.03;;;9.92;45.19
26859;BME280;14429;48.346;16.338;2023-03-01T06:25:15;100786.50;;;9.89;45.16
26859;BME280;14429;48.346;16.338;2023-03-01T06:27:43;100782.97;;;9.88;45.16
26859;BME280;14429;48.346;16.338;2023-03-01T06:30:10;100785.50;;;9.91;44.89
26859;BME280;14429;48.346;16.338;2023-03-01T06:32:36;100780.06;;;9.93;45.01
26859;BME280;14429;48.346;16.338;2023-03-01T06:35:02;100779.31;;;9.91;45.00
26859;BME280;14429;48.346;16.338;2023-03-01T06:37:27;100786.63;;;9.68;45.06
26859;BME280;14429;48.346;16.338;2023-03-01T06:39:53;100787.78;;;9.62;45.23
26859;BME280;14429;48.346;16.338;2023-03-01T06:42:18;100792.25;;;9.80;45.16
26859;BME280;14429;48.346;16.338;2023-03-01T06:44:45;100796.91;;;9.93;45.10
26859;BME280;14429;48.346;16.338;2023-03-01T06:47:10;100797.84;;;9.92;44.99
26859;BME280;14429;48.346;16.338;2023-03-01T06:49:36;100805.75;;;9.94;44.82
26859;BME280;14429;48.346;16.338;2023-03-01T06:52:01;100797.13;;;9.89;45.03
26859;BME280;14429;48.346;16.338;2023-03-01T06:54:27;100798.13;;;9.86;45.00
26859;BME280;14429;48.346;16.338;2023-03-01T06:56:52;100791.97;;;9.86;44.99
26859;BME280;14429;48.346;16.338;2023-03-01T06:59:18;100793.69;;;9.87;45.00
26859;BME280;14429;48.346;16.338;2023-03-01T07:01:45;100792.06;;;9.83;45.33
26859;BME280;14429;48.346;16.338;2023-03-01T07:04:11;100782.09;;;9.88;45.07
26859;BME280;14429;48.346;16.338;2023-03-01T07:06:36;100787.28;;;9.91;44.78
26859;BME280;14429;48.346;16.338;2023-03-01T07:09:02;100780.78;;;9.96;44.88
26859;BME280;14429;48.346;16.338;2023-03-01T07:11:27;100783.38;;;9.97;44.85
26859;BME280;14429;48.346;16.338;2023-03-01T07:13:53;100790.59;;;9.96;44.99
26859;BME280;14429;48.346;16.338;2023-03-01T07:16:18;100787.06;;;9.95;44.93
26859;BME280;14429;48.346;16.338;2023-03-01T07:18:45;100780.88;;;9.95;44.88
26859;BME280;14429;48.346;16.338;2023-03-01T07:21:13;100789.72;;;9.95;44.80
26859;BME280;14429;48.346;16.338;2023-03-01T07:23:38;100782.75;;;9.93;45.07
26859;BME280;14429;48.346;16.338;2023-03-01T07:26:04;100785.88;;;9.82;45.08
26859;BME280;14429;48.346;16.338;2023-03-01T07:28:30;100788.34;;;9.87;45.06
26859;BME280;14429;48.346;16.338;2023-03-01T07:31:00;100785.63;;;9.88;44.89
26859;BME280;14429;48.346;16.338;2023-03-01T07:33:26;100787.28;;;9.91;45.01
26859;BME280;14429;48.346;16.338;2023-03-01T07:35:58;100779.13;;;9.94;45.02
26859;BME280;14429;48.346;16.338;2023-03-01T07:38:24;100778.13;;;9.96;44.85
26859;BME280;14429;48.346;16.338;2023-03-01T07:40:50;100777.56;;;9.90;44.91
26859;BME280;14429;48.346;16.338;2023-03-01T07:43:15;100772.38;;;9.87;45.12
26859;BME280;14429;48.346;16.338;2023-03-01T07:45:41;100781.88;;;9.92;44.84
26859;BME280;14429;48.346;16.338;2023-03-01T07:48:06;100779.84;;;9.97;44.58
26859;BME280;14429;48.346;16.338;2023-03-01T07:50:31;100776.19;;;9.99;44.88
26859;BME280;14429;48.346;16.338;2023-03-01T07:52:58;100777.25;;;9.96;44.93
26859;BME280;14429;48.346;16.338;2023-03-01T07:55:24;100768.91;;;9.85;44.55
26859;BME280;14429;48.346;16.338;2023-03-01T07:57:49;100769.28;;;9.59;43.53
26859;BME280;14429;48.346;16.338;2023-03-01T08:00:15;100766.56;;;9.24;44.59
26859;BME280;14429;48.346;16.338;2023-03-01T08:02:40;100761.72;;;9.14;45.80
26859;BME280;14429;48.346;16.338;2023-03-01T08:05:06;100758.59;;;9.42;45.84
26859;BME280;14429;48.346;16.338;2023-03-01T08:07:32;100773.25;;;8.57;43.21
26859;BME280;14429;48.346;16.338;2023-03-01T08:09:59;100761.88;;;9.11;46.50
26859;BME280;14429;48.346;16.338;2023-03-01T08:12:25;100758.41;;;9.45;46.04
26859;BME280;14429;48.346;16.338;2023-03-01T08:14:50;100755.75;;;9.64;45.65
26859;BME280;14429;48.346;16.338;2023-03-01T08:17:16;100755.47;;;9.69;45.44
26859;BME280;14429;48.346;16.338;2023-03-01T08:19:42;100753.09;;;9.45;45.31
26859;BME280;14429;48.346;16.338;2023-03-01T08:22:07;100767.44;;;9.25;45.92
26859;BME280;14429;48.346;16.338;2023-03-01T08:24:33;100761.31;;;9.41;45.27
26859;BME280;14429;48.346;16.338;2023-03-01T08:26:59;100752.81;;;9.51;45.84
26859;BME280;14429;48.346;16.338;2023-03-01T08:29:25;100760.88;;;9.32;43.19
26859;BME280;14429;48.346;16.338;2023-03-01T08:31:51;100764.00;;;9.03;45.56
26859;BME280;14429;48.346;16.338;2023-03-01T08:34:17;100761.56;;;8.99;46.76
26859;BME280;14429;48.346;16.338;2023-03-01T08:36:44;100755.75;;;9.45;46.25
26859;BME280;14429;48.346;16.338;2023-03-01T08:39:11;100763.53;;;9.32;45.72
26859;BME280;14429;48.346;16.338;2023-03-01T08:41:37;100770.38;;;9.37;45.84
26859;BME280;14429;48.346;16.338;2023-03-01T08:44:05;100764.00;;;8.65;43.32
26859;BME280;14429;48.346;16.338;2023-03-01T08:46:32;100764.75;;;9.25;45.64
26859;BME280;14429;48.346;16.338;2023-03-01T08:48:58;100772.13;;;9.00;43.54
26859;BME280;14429;48.346;16.338;2023-03-01T08:51:25;100761.47;;;9.20;45.16
26859;BME280;14429;48.346;16.338;2023-03-01T08:53:51;100769.75;;;8.94;42.76
26859;BME280;14429;48.346;16.338;2023-03-01T08:56:17;100762.59;;;9.33;45.45
26859;BME280;14429;48.346;16.338;2023-03-01T08:58:44;100754.03;;;9.63;44.73
26859;BME280;14429;48.346;16.338;2023-03-01T09:01:12;100743.88;;;9.52;44.60
26859;BME280;14429;48.346;16.338;2023-03-01T09:03:38;100740.47;;;9.50;44.70
26859;BME280;14429;48.346;16.338;2023-03-01T09:06:05;100738.63;;;9.69;44.72
26859;BME280;14429;48.346;16.338;2023-03-01T09:08:34;100734.81;;;9.56;44.24
26859;BME280;14429;48.346;16.338;2023-03-01T09:11:01;100732.38;;;9.34;43.59
26859;BME280;14429;48.346;16.338;2023-03-01T09:13:27;100733.44;;;9.66;44.96
26859;BME280;14429;48.346;16.338;2023-03-01T09:15:53;100726.63;;;9.61;44.72
26859;BME280;14429;48.346;16.338;2023-03-01T09:18:19;100724.19;;;9.38;45.26
26859;BME280;14429;48.346;16.338;2023-03-01T09:20:45;100735.06;;;8.78;44.19
26859;BME280;14429;48.346;16.338;2023-03-01T09:23:10;100730.34;;;8.27;45.17
26859;BME280;14429;48.346;16.338;2023-03-01T09:25:35;100729.28;;;8.31;45.69
26859;BME280;14429;48.346;16.338;2023-03-01T09:28:01;100725.13;;;8.63;45.17
26859;BME280;14429;48.346;16.338;2023-03-01T09:30:27;100726.50;;;8.53;46.94
26859;BME280;14429;48.346;16.338;2023-03-01T09:32:52;100713.84;;;9.14;46.54
26859;BME280;14429;48.346;16.338;2023-03-01T09:35:19;100717.72;;;9.07;44.57
26859;BME280;14429;48.346;16.338;2023-03-01T09:37:44;100712.41;;;9.43;45.65
26859;BME280;14429;48.346;16.338;2023-03-01T09:40:14;100707.47;;;9.53;45.54
26859;BME280;14429;48.346;16.338;2023-03-01T09:42:47;100702.69;;;9.42;45.53
26859;BME280;14429;48.346;16.338;2023-03-01T09:45:24;100695.97;;;9.52;45.09
26859;BME280;14429;48.346;16.338;2023-03-01T09:47:50;100693.72;;;8.90;44.14
26859;BME280;14429;48.346;16.338;2023-03-01T09:50:19;100707.94;;;8.89;44.21
26859;BME280;14429;48.346;16.338;2023-03-01T09:52:47;100700.63;;;9.13;45.01
26859;BME280;14429;48.346;16.338;2023-03-01T09:55:15;100689.69;;;9.37;45.68
26859;BME280;14429;48.346;16.338;2023-03-01T09:57:46;100698.22;;;9.61;45.40
26859;BME280;14429;48.346;16.338;2023-03-01T10:00:22;100682.41;;;9.75;45.27
26859;BME280;14429;48.346;16.338;2023-03-01T10:02:57;100679.41;;;9.64;44.80
26859;BME280;14429;48.346;16.338;2023-03-01T10:05:35;100679.91;;;9.19;43.13
26859;BME280;14429;48.346;16.338;2023-03-01T10:08:14;100682.63;;;9.54;45.40
26859;BME280;14429;48.346;16.338;2023-03-01T10:10:46;100679.00;;;9.55;44.82
26859;BME280;14429;48.346;16.338;2023-03-01T10:13:17;100687.13;;;9.17;43.13
26859;BME280;14429;48.346;16.338;2023-03-01T10:15:50;100675.59;;;9.35;44.81
26859;BME280;14429;48.346;16.338;2023-03-01T10:18:19;100673.44;;;9.59;45.16
26859;BME280;14429;48.346;16.338;2023-03-01T10:20:53;100668.16;;;9.76;45.01
26859;BME280;14429;48.346;16.338;2023-03-01T10:23:19;100662.84;;;9.76;44.96
26859;BME280;14429;48.346;16.338;2023-03-01T10:25:51;100666.78;;;9.51;42.12
26859;BME280;14429;48.346;16.338;2023-03-01T10:28:26;100665.72;;;9.37;43.03
26859;BME280;14429;48.346;16.338;2023-03-01T10:30:56;100662.22;;;9.18;42.07
26859;BME280;14429;48.346;16.338;2023-03-01T10:33:24;100668.13;;;9.06;42.52
26859;BME280;14429;48.346;16.338;2023-03-01T10:35:52;100668.47;;;8.81;42.75
26859;BME280;14429;48.346;16.338;2023-03-01T10:38:19;100661.63;;;9.12;45.00
26859;BME280;14429;48.346;16.338;2023-03-01T10:40:53;100653.41;;;8.99;43.86
26859;BME280;14429;48.346;16.338;2023-03-01T10:43:20;100647.28;;;8.61;43.57
26859;BME280;14429;48.346;16.338;2023-03-01T10:45:46;100643.81;;;8.77;45.59
26859;BME280;14429;48.346;16.338;2023-03-01T10:48:14;100637.66;;;8.95;46.09
26859;BME280;14429;48.346;16.338;2023-03-01T10:50:40;100640.66;;;9.24;45.91
26859;BME280;14429;48.346;16.338;2023-03-01T10:53:23;100631.16;;;8.82;43.94
26859;BME280;14429;48.346;16.338;2023-03-01T10:55:57;100641.53;;;9.06;46.00
26859;BME280;14429;48.346;16.338;2023-03-01T10:58:23;100636.16;;;8.71;44.27
26859;BME280;14429;48.346;16.338;2023-03-01T11:00:51;100624.88;;;8.85;44.16
26859;BME280;14429;48.346;16.338;2023-03-01T11:03:21;100617.25;;;8.77;44.97
26859;BME280;14429;48.346;16.338;2023-03-01T11:05:58;100617.97;;;8.81;44.61
26859;BME280;14429;48.346;16.338;2023-03-01T11:08:43;100604.75;;;8.79;44.25
26859;BME280;14429;48.346;16.338;2023-03-01T11:11:23;100607.81;;;8.88;46.66
26859;BME280;14429;48.346;16.338;2023-03-01T11:13:55;100605.88;;;8.92;46.13
26859;BME280;14429;48.346;16.338;2023-03-01T11:16:31;100594.66;;;8.86;44.93
26859;BME280;14429;48.346;16.338;2023-03-01T11:19:00;100590.53;;;9.15;46.54
26859;BME280;14429;48.346;16.338;2023-03-01T11:21:28;100587.97;;;9.14;45.42
26859;BME280;14429;48.346;16.338;2023-03-01T11:23:57;100584.16;;;9.01;44.52
26859;BME280;14429;48.346;16.338;2023-03-01T11:26:25;100580.69;;;9.17;44.52
26859;BME280;14429;48.346;16.338;2023-03-01T11:28:55;100577.28;;;9.48;46.17
26859;BME280;14429;48.346;16.338;2023-03-01T11:31:23;100580.09;;;9.29;44.98
26859;BME280;14429;48.346;16.338;2023-03-01T11:33:54;100583.53;;;9.31;44.94
26859;BME280;14429;48.346;16.338;2023-03-01T11:36:28;100583.69;;;9.28;45.20
26859;BME280;14429;48.346;16.338;2023-03-01T11:39:04;100577.91;;;9.37;45.85
26859;BME280;14429;48.346;16.338;2023-03-01T11:41:32;100583.22;;;9.37;44.56
26859;BME280;14429;48.346;16.338;2023-03-01T11:44:00;100574.78;;;9.45;45.22
26859;BME280;14429;48.346;16.338;2023-03-01T11:46:47;100575.34;;;9.35;43.99
26859;BME280;14429;48.346;16.338;2023-03-01T11:49:38;100577.00;;;9.19;44.15
26859;BME280;14429;48.346;16.338;2023-03-01T11:52:16;100571.03;;;9.33;45.27
26859;BME280;14429;48.346;16.338;2023-03-01T11:54:55;100576.63;;;9.27;45.64
26859;BME280;14429;48.346;16.338;2023-03-01T11:57:37;100577.66;;;9.24;45.24
26859;BME280;14429;48.346;16.338;2023-03-01T12:00:17;100572.59;;;9.37;45.45
26859;BME280;14429;48.346;16.338;2023-03-01T12:05:55;100569.16;;;9.35;45.97
26859;BME280;14429;48.346;16.338;2023-03-01T12:08:31;100565.63;;;9.51;45.72
26859;BME280;14429;48.346;16.338;2023-03-01T12:11:03;100565.41;;;9.39;45.31
26859;BME280;14429;48.346;16.338;2023-03-01T12:16:40;100557.63;;;9.68;45.20
26859;BME280;14429;48.346;16.338;2023-03-01T12:19:27;100565.31;;;9.57;45.48
26859;BME280;14429;48.346;16.338;2023-03-01T12:22:11;100552.56;;;9.46;44.49
26859;BME280;14429;48.346;16.338;2023-03-01T12:27:55;100551.88;;;9.76;45.85
26859;BME280;14429;48.346;16.338;2023-03-01T12:30:32;100547.72;;;9.88;45.27
26859;BME280;14429;48.346;16.338;2023-03-01T12:33:15;100549.97;;;9.78;44.97
26859;BME280;14429;48.346;16.338;2023-03-01T12:35:50;100538.00;;;9.70;44.98
26859;BME280;14429;48.346;16.338;2023-03-01T12:38:37;100528.13;;;9.72;45.62
26859;BME280;14429;48.346;16.338;2023-03-01T12:41:13;100530.78;;;9.55;45.48
26859;BME280;14429;48.346;16.338;2023-03-01T12:43:47;100530.25;;;9.49;45.64
26859;BME280;14429;48.346;16.338;2023-03-01T12:46:25;100534.25;;;9.57;45.30
26859;BME280;14429;48.346;16.338;2023-03-01T12:49:01;100533.91;;;9.63;45.39
26859;BME280;14429;48.346;16.338;2023-03-01T12:51:32;100525.16;;;9.61;45.73
26859;BME280;14429;48.346;16.338;2023-03-01T12:54:05;100530.19;;;9.50;45.85
26859;BME280;14429;48.346;16.338;2023-03-01T12:56:35;100535.75;;;9.46;45.73
26859;BME280;14429;48.346;16.338;2023-03-01T12:59:11;100527.53;;;9.50;45.68